Time;durP1;ratioP1;P1;durP2;ratioP2;P2;SDS_P1;SDS_P2;PMS_P1;PMS_P2;Temp;Humidity;BMP_temperature;BMP_pressure;BME280_temperature;BME280_humidity;BME280_pressure;Samples;Min_cycle;Max_cycle;Signal;HPM_P1;HPM_P2
2023/08/07 00:01:45;;;;;;;;;;;21.40;69.40;;;;;;5031376;28;21439;-53
2023/08/07 00:04:11;;;;;;;;;;;21.40;69.20;;;;;;5030254;28;19919;-53
2023/08/07 00:06:36;;;;;;;;;;;21.40;69.20;;;;;;5031954;28;19916;-53
2023/08/07 00:09:02;;;;;;;;;;;21.40;69.10;;;;;;5030322;28;19917;-54
2023/08/07 00:11:28;;;;;;;;;;;21.40;69.10;;;;;;5030950;28;20374;-53
2023/08/07 00:13:54;;;;;;;;;;;21.40;68.90;;;;;;5031621;28;19916;-54
2023/08/07 00:16:19;;;;;;;;;;;21.40;69.00;;;;;;5032063;28;19921;-53
2023/08/07 00:18:44;;;;;;;;;;;21.40;68.80;;;;;;5014479;28;19943;-53
2023/08/07 00:21:10;;;;;;;;;;;21.40;68.70;;;;;;5032273;28;19913;-53
2023/08/07 00:23:35;;;;;;;;;;;21.40;68.80;;;;;;5032759;28;19913;-53
2023/08/07 00:26:01;;;;;;;;;;;21.40;68.60;;;;;;5033154;28;19909;-53
2023/08/07 00:28:28;;;;;;;;;;;21.40;69.40;;;;;;5032205;28;19909;-53
2023/08/07 00:30:53;;;;;;;;;;;21.40;68.50;;;;;;5032416;28;19913;-53
2023/08/07 00:33:19;;;;;;;;;;;21.40;68.40;;;;;;5033945;28;19917;-53
2023/08/07 00:35:44;;;;;;;;;;;21.40;68.30;;;;;;5032170;28;19978;-53
2023/08/07 00:38:09;;;;;;;;;;;21.40;68.30;;;;;;5032601;28;19933;-53
2023/08/07 00:40:38;;;;;;;;;;;21.30;68.00;;;;;;5032869;28;19913;-53
2023/08/07 00:43:04;;;;;;;;;;;21.30;68.10;;;;;;5033037;28;19967;-53
2023/08/07 00:45:29;;;;;;;;;;;21.30;67.90;;;;;;5031625;28;20332;-53
2023/08/07 00:47:55;;;;;;;;;;;21.40;67.90;;;;;;5029912;28;19921;-53
2023/08/07 00:50:20;;;;;;;;;;;21.40;67.90;;;;;;5031466;28;19921;-53
2023/08/07 00:52:46;;;;;;;;;;;21.40;68.70;;;;;;5032160;28;20373;-53
2023/08/07 00:55:11;;;;;;;;;;;21.30;67.80;;;;;;5031894;28;20342;-53
2023/08/07 00:57:36;;;;;;;;;;;21.30;67.80;;;;;;5029709;28;19929;-53
2023/08/07 01:00:02;;;;;;;;;;;21.30;67.70;;;;;;5025772;28;19913;-53
2023/08/07 01:02:28;;;;;;;;;;;21.30;67.80;;;;;;5028962;28;19959;-53
2023/08/07 01:04:53;;;;;;;;;;;21.30;67.50;;;;;;5031168;28;19909;-53
2023/08/07 01:07:19;;;;;;;;;;;21.30;67.60;;;;;;5015884;28;19956;-53
2023/08/07 01:09:44;;;;;;;;;;;21.30;67.40;;;;;;5047164;28;19913;-53
2023/08/07 01:12:17;;;;;;;;;;;21.30;67.30;;;;;;5031095;28;19909;-54
2023/08/07 01:14:47;;;;;;;;;;;21.30;67.30;;;;;;5031534;28;19920;-52
2023/08/07 01:17:16;;;;;;;;;;;21.30;67.30;;;;;;5029818;28;20016;-53
2023/08/07 01:19:41;;;;;;;;;;;21.30;67.10;;;;;;5013991;28;20000;-53
2023/08/07 01:22:10;;;;;;;;;;;21.30;67.10;;;;;;5032126;28;20291;-52
2023/08/07 01:24:36;;;;;;;;;;;21.30;67.00;;;;;;5031911;28;19917;-53
2023/08/07 01:27:11;;;;;;;;;;;21.40;67.20;;;;;;5029736;28;19913;-53
2023/08/07 01:29:39;;;;;;;;;;;21.30;67.10;;;;;;5024737;28;19936;-53
2023/08/07 01:32:05;;;;;;;;;;;21.30;67.10;;;;;;5026488;28;19927;-53
2023/08/07 01:34:30;;;;;;;;;;;21.30;67.20;;;;;;4999455;28;19920;-53
2023/08/07 01:36:56;;;;;;;;;;;21.30;67.30;;;;;;5019356;28;19913;-53
2023/08/07 01:39:21;;;;;;;;;;;21.30;67.30;;;;;;5031728;28;20289;-53
2023/08/07 01:41:48;;;;;;;;;;;21.30;67.30;;;;;;5043941;28;19966;-53
2023/08/07 01:44:13;;;;;;;;;;;21.30;67.30;;;;;;5015184;28;19928;-53
2023/08/07 01:46:39;;;;;;;;;;;21.20;67.30;;;;;;5014952;28;19918;-53
2023/08/07 01:49:04;;;;;;;;;;;21.20;67.30;;;;;;5027572;28;19921;-53
2023/08/07 01:51:30;;;;;;;;;;;21.20;67.20;;;;;;5030262;28;19956;-53
2023/08/07 01:53:55;;;;;;;;;;;21.30;67.30;;;;;;5040493;28;19913;-53
2023/08/07 01:56:20;;;;;;;;;;;21.20;67.30;;;;;;5030426;28;19913;-53
2023/08/07 01:58:46;;;;;;;;;;;21.20;67.30;;;;;;5028609;28;19913;-53
2023/08/07 02:01:11;;;;;;;;;;;21.20;67.30;;;;;;5028377;28;19931;-53
2023/08/07 02:03:37;;;;;;;;;;;21.20;67.30;;;;;;5030085;28;19947;-53
2023/08/07 02:06:02;;;;;;;;;;;21.30;67.40;;;;;;5029826;28;19917;-53
2023/08/07 02:08:28;;;;;;;;;;;21.20;67.30;;;;;;5033622;28;19913;-53
2023/08/07 02:10:53;;;;;;;;;;;21.20;67.30;;;;;;5035450;28;19999;-53
2023/08/07 02:13:19;;;;;;;;;;;21.20;67.40;;;;;;5031541;28;20395;-53
2023/08/07 02:15:44;;;;;;;;;;;21.20;67.30;;;;;;5033825;28;19971;-53
2023/08/07 02:18:09;;;;;;;;;;;21.20;67.30;;;;;;5033668;28;20111;-53
2023/08/07 02:20:35;;;;;;;;;;;21.20;67.30;;;;;;5033701;28;19936;-53
2023/08/07 02:23:00;;;;;;;;;;;21.20;67.20;;;;;;5040640;28;19913;-53
2023/08/07 02:25:26;;;;;;;;;;;21.20;67.20;;;;;;5044570;28;19913;-54
2023/08/07 02:27:51;;;;;;;;;;;21.20;67.10;;;;;;5032479;28;19919;-53
2023/08/07 02:30:17;;;;;;;;;;;21.20;67.30;;;;;;5033496;28;19968;-53
2023/08/07 02:32:44;;;;;;;;;;;21.20;67.20;;;;;;5034419;28;19913;-54
2023/08/07 02:35:10;;;;;;;;;;;21.20;67.20;;;;;;5034208;28;20011;-53
2023/08/07 02:37:36;;;;;;;;;;;21.10;67.10;;;;;;5016813;28;19959;-53
2023/08/07 02:40:01;;;;;;;;;;;21.20;67.20;;;;;;5033897;28;19959;-52
2023/08/07 02:42:27;;;;;;;;;;;21.10;66.90;;;;;;5032888;28;19917;-53
2023/08/07 02:44:52;;;;;;;;;;;21.20;67.10;;;;;;5033269;28;20399;-54
2023/08/07 02:47:17;;;;;;;;;;;21.20;67.00;;;;;;5032230;28;20305;-53
2023/08/07 02:49:43;;;;;;;;;;;21.20;66.90;;;;;;5031918;28;19976;-53
2023/08/07 02:52:08;;;;;;;;;;;21.20;66.80;;;;;;5033508;28;19914;-53
2023/08/07 02:54:34;;;;;;;;;;;21.10;66.80;;;;;;5033778;28;19917;-53
2023/08/07 02:56:59;;;;;;;;;;;21.10;66.80;;;;;;5033780;28;19964;-53
2023/08/07 02:59:25;;;;;;;;;;;21.10;67.60;;;;;;5029963;28;19909;-53
2023/08/07 03:01:50;;;;;;;;;;;21.00;66.70;;;;;;5032530;28;19939;-53
2023/08/07 03:04:16;;;;;;;;;;;21.10;66.80;;;;;;5034282;28;19988;-53
2023/08/07 03:06:41;;;;;;;;;;;21.10;66.80;;;;;;5033963;28;20402;-53
2023/08/07 03:09:06;;;;;;;;;;;21.10;66.80;;;;;;5031333;28;19909;-53
2023/08/07 03:11:32;;;;;;;;;;;21.10;66.80;;;;;;5032134;28;20015;-53
2023/08/07 03:13:57;;;;;;;;;;;21.10;66.80;;;;;;5033632;28;19913;-53
2023/08/07 03:16:23;;;;;;;;;;;21.10;66.80;;;;;;5046813;28;19913;-53
2023/08/07 03:18:48;;;;;;;;;;;21.10;66.80;;;;;;5032414;28;19913;-53
2023/08/07 03:21:14;;;;;;;;;;;21.10;66.80;;;;;;5034531;28;20467;-53
2023/08/07 03:23:39;;;;;;;;;;;21.10;66.80;;;;;;5034006;28;19917;-53
2023/08/07 03:26:05;;;;;;;;;;;21.10;66.90;;;;;;5031241;28;19909;-53
2023/08/07 03:28:31;;;;;;;;;;;21.10;66.90;;;;;;5033266;28;19920;-53
2023/08/07 03:30:57;;;;;;;;;;;21.10;66.90;;;;;;5033995;28;20009;-53
2023/08/07 03:33:22;;;;;;;;;;;21.10;66.90;;;;;;5031548;28;20004;-53
2023/08/07 03:35:47;;;;;;;;;;;21.10;67.00;;;;;;5033424;28;20337;-53
2023/08/07 03:38:13;;;;;;;;;;;21.10;67.00;;;;;;5031502;28;20377;-53
2023/08/07 03:40:38;;;;;;;;;;;21.10;67.00;;;;;;5032707;28;20257;-53
2023/08/07 03:43:04;;;;;;;;;;;21.10;67.10;;;;;;5012537;28;20335;-53
2023/08/07 03:45:29;;;;;;;;;;;21.00;67.10;;;;;;5032215;28;20049;-53
2023/08/07 03:47:55;;;;;;;;;;;21.10;67.20;;;;;;5031093;28;19925;-53
2023/08/07 03:50:20;;;;;;;;;;;21.10;67.20;;;;;;5032648;28;19909;-53
2023/08/07 03:52:46;;;;;;;;;;;21.10;67.30;;;;;;5032462;28;19920;-53
2023/08/07 03:55:11;;;;;;;;;;;21.10;67.30;;;;;;5012946;28;19935;-54
2023/08/07 03:57:37;;;;;;;;;;;21.10;67.40;;;;;;5032825;28;19921;-53
2023/08/07 04:00:03;;;;;;;;;;;21.10;67.40;;;;;;5028789;28;19939;-53
2023/08/07 04:02:29;;;;;;;;;;;21.10;67.60;;;;;;5030520;28;19923;-53
2023/08/07 04:04:54;;;;;;;;;;;21.00;67.50;;;;;;5039264;28;20303;-53
2023/08/07 04:07:20;;;;;;;;;;;21.00;67.60;;;;;;5032852;28;19913;-53
2023/08/07 04:09:45;;;;;;;;;;;21.00;68.30;;;;;;5032737;28;20305;-54
2023/08/07 04:12:10;;;;;;;;;;;21.00;67.50;;;;;;5029711;28;19913;-53
2023/08/07 04:14:36;;;;;;;;;;;21.00;67.50;;;;;;5031500;28;19920;-53
2023/08/07 04:17:02;;;;;;;;;;;21.00;67.60;;;;;;5031880;28;19917;-53
2023/08/07 04:19:27;;;;;;;;;;;21.00;67.60;;;;;;5031180;28;19917;-53
2023/08/07 04:21:53;;;;;;;;;;;21.00;67.60;;;;;;5030575;28;19920;-53
2023/08/07 04:24:18;;;;;;;;;;;21.00;67.60;;;;;;5031416;28;19948;-53
2023/08/07 04:26:44;;;;;;;;;;;21.00;67.70;;;;;;5032413;28;19909;-53
2023/08/07 04:29:09;;;;;;;;;;;21.00;67.70;;;;;;5029881;28;19920;-53
2023/08/07 04:31:35;;;;;;;;;;;21.00;67.90;;;;;;5031217;28;19910;-53
2023/08/07 04:34:00;;;;;;;;;;;21.00;68.00;;;;;;5030992;28;19920;-53
2023/08/07 04:36:26;;;;;;;;;;;21.00;68.00;;;;;;5031586;28;19913;-53
2023/08/07 04:38:51;;;;;;;;;;;21.00;68.00;;;;;;5032423;28;19943;-53
2023/08/07 04:41:17;;;;;;;;;;;21.00;68.10;;;;;;5016550;28;19918;-53
2023/08/07 04:43:42;;;;;;;;;;;21.00;68.20;;;;;;5031052;28;19913;-53
2023/08/07 04:46:09;;;;;;;;;;;21.00;68.30;;;;;;5037637;28;19923;-53
2023/08/07 04:48:35;;;;;;;;;;;21.00;68.30;;;;;;5031375;28;20413;-53
2023/08/07 04:51:00;;;;;;;;;;;20.90;68.30;;;;;;5031143;28;20016;-53
2023/08/07 04:53:26;;;;;;;;;;;21.00;68.50;;;;;;5029906;28;19975;-53
2023/08/07 04:55:51;;;;;;;;;;;21.00;68.50;;;;;;5029919;28;19909;-54
2023/08/07 04:58:16;;;;;;;;;;;21.00;68.50;;;;;;5029974;28;19921;-53
2023/08/07 05:00:42;;;;;;;;;;;21.00;68.60;;;;;;5030865;28;19978;-53
2023/08/07 05:03:07;;;;;;;;;;;21.00;68.80;;;;;;5032105;28;19912;-53
2023/08/07 05:05:33;;;;;;;;;;;21.00;68.70;;;;;;5047719;28;19921;-53
2023/08/07 05:07:59;;;;;;;;;;;21.00;68.70;;;;;;5030555;28;19910;-54
2023/08/07 05:10:24;;;;;;;;;;;21.00;68.60;;;;;;5030826;28;20377;-53
2023/08/07 05:12:55;;;;;;;;;;;21.00;68.40;;;;;;5030286;28;20004;-53
2023/08/07 05:15:21;;;;;;;;;;;21.00;68.60;;;;;;5035066;28;19917;-53
2023/08/07 05:17:46;;;;;;;;;;;21.00;68.70;;;;;;5030492;28;19917;-53
2023/08/07 05:20:12;;;;;;;;;;;21.00;68.70;;;;;;5029497;28;19913;-53
2023/08/07 05:22:37;;;;;;;;;;;21.00;68.80;;;;;;5030159;28;19924;-53
2023/08/07 05:25:03;;;;;;;;;;;21.00;68.80;;;;;;5031938;28;19935;-53
2023/08/07 05:27:28;;;;;;;;;;;21.00;69.00;;;;;;5051993;28;19948;-53
2023/08/07 05:29:54;;;;;;;;;;;21.00;69.10;;;;;;5051057;28;20004;-53
2023/08/07 05:32:19;;;;;;;;;;;21.00;69.30;;;;;;5041355;28;20384;-53
2023/08/07 05:34:45;;;;;;;;;;;21.00;69.30;;;;;;5046533;28;19917;-53
2023/08/07 05:37:10;;;;;;;;;;;20.90;69.30;;;;;;5030831;28;20348;-53
2023/08/07 05:39:36;;;;;;;;;;;21.00;69.30;;;;;;5031823;28;19916;-53
2023/08/07 05:42:01;;;;;;;;;;;21.00;69.30;;;;;;5031061;28;19981;-53
2023/08/07 05:44:27;;;;;;;;;;;21.00;69.40;;;;;;5032788;28;19913;-52
2023/08/07 05:46:52;;;;;;;;;;;21.00;69.30;;;;;;5035973;28;19913;-54
2023/08/07 05:49:18;;;;;;;;;;;21.00;69.30;;;;;;5035658;28;20378;-53
2023/08/07 05:51:44;;;;;;;;;;;21.00;69.40;;;;;;5033275;28;19913;-53
2023/08/07 05:54:09;;;;;;;;;;;21.00;69.50;;;;;;5035433;28;19953;-53
2023/08/07 05:56:35;;;;;;;;;;;20.90;69.50;;;;;;5017280;28;19924;-53
2023/08/07 05:59:00;;;;;;;;;;;20.90;69.50;;;;;;5039701;28;19951;-54
2023/08/07 06:01:32;;;;;;;;;;;20.90;69.60;;;;;;5031367;28;19967;-53
2023/08/07 06:03:57;;;;;;;;;;;20.90;69.70;;;;;;5029346;28;20343;-55
2023/08/07 06:06:24;;;;;;;;;;;20.90;69.90;;;;;;5030385;28;20000;-54
2023/08/07 06:08:49;;;;;;;;;;;20.90;69.90;;;;;;5018600;28;19944;-55
2023/08/07 06:11:15;;;;;;;;;;;20.90;70.00;;;;;;5035774;28;20381;-53
2023/08/07 06:13:40;;;;;;;;;;;20.90;70.10;;;;;;5032561;28;19983;-54
2023/08/07 06:16:06;;;;;;;;;;;20.90;70.10;;;;;;5033812;28;19913;-53
2023/08/07 06:18:31;;;;;;;;;;;20.90;69.80;;;;;;5032195;28;20294;-53
2023/08/07 06:20:57;;;;;;;;;;;20.90;69.80;;;;;;5035346;28;20007;-54
2023/08/07 06:23:22;;;;;;;;;;;20.90;69.70;;;;;;5043452;28;20002;-54
2023/08/07 06:25:48;;;;;;;;;;;21.00;69.80;;;;;;5040574;28;19921;-54
2023/08/07 06:28:13;;;;;;;;;;;21.00;69.90;;;;;;5038517;28;19924;-54
2023/08/07 06:30:39;;;;;;;;;;;21.00;69.80;;;;;;5032224;28;19913;-54
2023/08/07 06:33:04;;;;;;;;;;;21.00;69.80;;;;;;5032290;28;19940;-54
2023/08/07 06:35:30;;;;;;;;;;;21.00;69.90;;;;;;5034194;28;19917;-53
2023/08/07 06:37:55;;;;;;;;;;;20.90;69.80;;;;;;5034981;28;19913;-53
2023/08/07 06:40:21;;;;;;;;;;;20.90;69.80;;;;;;5053278;28;19913;-53
2023/08/07 06:42:46;;;;;;;;;;;20.90;69.70;;;;;;5037110;28;19921;-53
2023/08/07 06:45:12;;;;;;;;;;;21.00;70.00;;;;;;5027109;28;19948;-53
2023/08/07 06:47:37;;;;;;;;;;;20.90;69.80;;;;;;5033979;28;19919;-53
2023/08/07 06:50:03;;;;;;;;;;;20.90;69.70;;;;;;5028657;28;20020;-53
2023/08/07 06:52:28;;;;;;;;;;;20.90;69.80;;;;;;5048632;28;19909;-53
2023/08/07 06:54:54;;;;;;;;;;;20.90;69.80;;;;;;5029783;28;19975;-53
2023/08/07 06:57:21;;;;;;;;;;;20.90;69.80;;;;;;5043691;28;19920;-53
2023/08/07 06:59:46;;;;;;;;;;;20.80;69.70;;;;;;5041167;28;20394;-53
2023/08/07 07:02:12;;;;;;;;;;;20.80;69.80;;;;;;5027235;28;19917;-53
2023/08/07 07:04:38;;;;;;;;;;;20.80;69.70;;;;;;5031926;28;19939;-53
2023/08/07 07:07:03;;;;;;;;;;;20.80;69.60;;;;;;5028309;28;19924;-53
2023/08/07 07:09:29;;;;;;;;;;;20.80;69.60;;;;;;5029387;28;19913;-53
2023/08/07 07:11:55;;;;;;;;;;;20.70;69.30;;;;;;5028354;28;19972;-53
2023/08/07 07:14:21;;;;;;;;;;;20.70;69.10;;;;;;5032531;28;19946;-54
2023/08/07 07:16:48;;;;;;;;;;;20.70;68.60;;;;;;5027149;28;19917;-54
2023/08/07 07:19:13;;;;;;;;;;;20.70;68.60;;;;;;5028930;28;19917;-53
2023/08/07 07:21:38;;;;;;;;;;;20.70;68.40;;;;;;5031080;28;19913;-54
2023/08/07 07:24:04;;;;;;;;;;;20.70;68.30;;;;;;5033351;28;19924;-54
2023/08/07 07:26:30;;;;;;;;;;;20.70;68.20;;;;;;5031921;28;19986;-53
2023/08/07 07:28:55;;;;;;;;;;;20.70;68.10;;;;;;5016399;28;19913;-53
2023/08/07 07:31:21;;;;;;;;;;;20.70;67.80;;;;;;5031498;28;20420;-53
2023/08/07 07:33:47;;;;;;;;;;;20.80;67.70;;;;;;5033297;28;20324;-54
2023/08/07 07:36:21;;;;;;;;;;;20.80;67.60;;;;;;5029863;28;19943;-53
2023/08/07 07:38:47;;;;;;;;;;;20.80;67.60;;;;;;5039763;28;19932;-54
2023/08/07 07:41:13;;;;;;;;;;;20.80;67.30;;;;;;5033659;28;19913;-54
2023/08/07 07:43:38;;;;;;;;;;;20.80;67.30;;;;;;5031810;28;19980;-53
2023/08/07 07:46:04;;;;;;;;;;;20.80;67.40;;;;;;5033110;28;19917;-54
2023/08/07 07:48:30;;;;;;;;;;;20.80;67.70;;;;;;5029705;28;20120;-54
2023/08/07 07:51:01;;;;;;;;;;;20.80;67.80;;;;;;5031372;28;19920;-54
2023/08/07 07:53:27;;;;;;;;;;;20.80;67.60;;;;;;5032735;28;19917;-53
2023/08/07 07:55:52;;;;;;;;;;;20.80;67.60;;;;;;5029798;28;19913;-53
2023/08/07 07:58:18;;;;;;;;;;;20.90;67.50;;;;;;5033047;28;19921;-54
2023/08/07 08:00:43;;;;;;;;;;;20.90;67.60;;;;;;5030707;28;20273;-54
2023/08/07 08:03:09;;;;;;;;;;;20.90;67.60;;;;;;5029550;28;19917;-53
2023/08/07 08:05:34;;;;;;;;;;;20.90;67.50;;;;;;5025321;28;19917;-54
2023/08/07 08:08:01;;;;;;;;;;;20.90;67.40;;;;;;5030080;28;20000;-53
2023/08/07 08:10:26;;;;;;;;;;;20.90;67.40;;;;;;5032264;28;19914;-53
2023/08/07 08:12:54;;;;;;;;;;;20.90;67.40;;;;;;5031110;28;19920;-53
2023/08/07 08:15:21;;;;;;;;;;;20.90;67.40;;;;;;5028876;28;19957;-54
2023/08/07 08:17:46;;;;;;;;;;;20.90;67.30;;;;;;5032628;28;19917;-54
2023/08/07 08:20:15;;;;;;;;;;;20.90;67.30;;;;;;5029941;28;20184;-54
2023/08/07 08:22:40;;;;;;;;;;;20.90;67.30;;;;;;5032229;28;19970;-54
2023/08/07 08:25:06;;;;;;;;;;;20.90;67.40;;;;;;5029269;28;19996;-54
2023/08/07 08:27:32;;;;;;;;;;;20.90;67.40;;;;;;5032325;28;19910;-55
2023/08/07 08:29:57;;;;;;;;;;;20.90;67.30;;;;;;5027786;28;20296;-54
2023/08/07 08:32:23;;;;;;;;;;;20.90;67.40;;;;;;5034124;28;19919;-54
2023/08/07 08:34:49;;;;;;;;;;;20.90;67.40;;;;;;5030416;28;19913;-53
2023/08/07 08:37:15;;;;;;;;;;;20.90;67.40;;;;;;5030507;28;19936;-55
2023/08/07 08:39:40;;;;;;;;;;;20.90;67.40;;;;;;5028892;28;20335;-54
2023/08/07 08:42:06;;;;;;;;;;;20.90;67.40;;;;;;5031900;28;19948;-53
2023/08/07 08:44:32;;;;;;;;;;;20.90;67.40;;;;;;5017635;28;20008;-54
2023/08/07 08:46:58;;;;;;;;;;;20.90;67.40;;;;;;5035128;28;20285;-54
2023/08/07 08:49:27;;;;;;;;;;;20.90;67.40;;;;;;5023218;28;20419;-54
2023/08/07 08:51:52;;;;;;;;;;;20.90;67.40;;;;;;5026628;28;20018;-53
2023/08/07 08:54:17;;;;;;;;;;;20.90;67.40;;;;;;5029406;28;19925;-54
2023/08/07 08:56:43;;;;;;;;;;;20.90;67.40;;;;;;5030903;28;19933;-55
2023/08/07 08:59:08;;;;;;;;;;;20.90;67.40;;;;;;5031258;28;20009;-54
2023/08/07 09:01:34;;;;;;;;;;;20.90;67.40;;;;;;5038282;28;19920;-54
2023/08/07 09:03:59;;;;;;;;;;;20.90;67.40;;;;;;5041285;28;19917;-53
2023/08/07 09:06:25;;;;;;;;;;;20.90;67.50;;;;;;5014055;28;20415;-54
2023/08/07 09:08:51;;;;;;;;;;;20.90;67.40;;;;;;5029795;28;19971;-54
2023/08/07 09:11:16;;;;;;;;;;;20.90;67.40;;;;;;5028638;28;20372;-54
2023/08/07 09:13:42;;;;;;;;;;;20.90;67.40;;;;;;5028720;28;20369;-54
2023/08/07 09:16:08;;;;;;;;;;;20.90;67.40;;;;;;5029225;28;20361;-54
2023/08/07 09:18:34;;;;;;;;;;;20.90;67.40;;;;;;5013668;28;19921;-53
2023/08/07 09:20:59;;;;;;;;;;;20.90;67.40;;;;;;5031920;28;19909;-54
2023/08/07 09:23:25;;;;;;;;;;;20.90;67.40;;;;;;5023727;28;20432;-53
2023/08/07 09:25:58;;;;;;;;;;;20.90;67.20;;;;;;5027349;28;19913;-53
2023/08/07 09:28:24;;;;;;;;;;;20.80;67.30;;;;;;5021171;28;19928;-54
2023/08/07 09:30:49;;;;;;;;;;;20.90;67.10;;;;;;5026805;28;19956;-53
2023/08/07 09:33:15;;;;;;;;;;;20.90;66.90;;;;;;5027567;28;19921;-54
2023/08/07 09:35:40;;;;;;;;;;;20.80;66.70;;;;;;5031684;28;20008;-53
2023/08/07 09:38:06;;;;;;;;;;;20.90;66.50;;;;;;5037624;28;19982;-54
2023/08/07 09:40:31;;;;;;;;;;;20.90;66.10;;;;;;5023065;28;20389;-54
2023/08/07 09:42:57;;;;;;;;;;;20.90;65.80;;;;;;5021963;28;20440;-53
2023/08/07 09:45:23;;;;;;;;;;;20.90;66.30;;;;;;5030846;28;20266;-53
2023/08/07 09:48:15;;;;;;;;;;;20.90;65.90;;;;;;5028571;28;19997;-54
2023/08/07 09:50:40;;;;;;;;;;;20.90;65.30;;;;;;5015468;28;20331;-54
2023/08/07 09:53:06;;;;;;;;;;;20.90;65.40;;;;;;5030656;28;19996;-54
2023/08/07 09:55:31;;;;;;;;;;;21.00;64.40;;;;;;5031438;28;19910;-54
2023/08/07 09:57:57;;;;;;;;;;;20.90;64.20;;;;;;5028743;28;19923;-54
2023/08/07 10:00:22;;;;;;;;;;;20.90;65.00;;;;;;5039691;28;20011;-54
2023/08/07 10:02:48;;;;;;;;;;;20.90;64.30;;;;;;5029892;28;19913;-53
2023/08/07 10:05:14;;;;;;;;;;;20.90;64.10;;;;;;5030954;28;19909;-53
2023/08/07 10:07:40;;;;;;;;;;;20.90;63.50;;;;;;5031002;28;19913;-54
2023/08/07 10:10:06;;;;;;;;;;;20.90;63.60;;;;;;5030449;28;19913;-54
2023/08/07 10:12:32;;;;;;;;;;;20.90;63.90;;;;;;5029456;28;19913;-54
2023/08/07 10:14:57;;;;;;;;;;;20.90;64.10;;;;;;5027109;28;19964;-54
2023/08/07 10:17:22;;;;;;;;;;;20.90;63.50;;;;;;5030556;28;19928;-54
2023/08/07 10:19:48;;;;;;;;;;;21.00;63.50;;;;;;5029224;28;19913;-53
2023/08/07 10:22:15;;;;;;;;;;;21.00;63.90;;;;;;5030625;28;20332;-53
2023/08/07 10:24:40;;;;;;;;;;;21.00;64.10;;;;;;5027231;28;20396;-54
2023/08/07 10:27:06;;;;;;;;;;;20.90;63.40;;;;;;5030309;28;19918;-54
2023/08/07 10:29:32;;;;;;;;;;;20.90;62.40;;;;;;5040487;28;19920;-53
2023/08/07 10:31:57;;;;;;;;;;;20.90;63.40;;;;;;5034687;28;19913;-53
2023/08/07 10:34:23;;;;;;;;;;;20.90;62.50;;;;;;5049613;28;20000;-54
2023/08/07 10:36:48;;;;;;;;;;;20.90;62.30;;;;;;5032050;28;19964;-53
2023/08/07 10:39:14;;;;;;;;;;;20.90;62.60;;;;;;5030687;28;19920;-54
2023/08/07 10:41:46;;;;;;;;;;;20.90;62.00;;;;;;5033840;28;19921;-54
2023/08/07 10:44:19;;;;;;;;;;;20.90;62.60;;;;;;5033488;28;20285;-54
2023/08/07 10:46:48;;;;;;;;;;;20.90;62.50;;;;;;5032950;28;19913;-53
2023/08/07 10:49:29;;;;;;;;;;;20.90;62.60;;;;;;5033708;28;20000;-54
2023/08/07 10:51:55;;;;;;;;;;;20.90;62.40;;;;;;5030752;28;19913;-55
2023/08/07 10:54:20;;;;;;;;;;;20.90;62.30;;;;;;5032224;28;19940;-54
2023/08/07 10:56:51;;;;;;;;;;;20.90;62.00;;;;;;5034107;28;19913;-54
2023/08/07 10:59:17;;;;;;;;;;;21.00;62.70;;;;;;5042042;28;19912;-53
2023/08/07 11:01:42;;;;;;;;;;;21.00;61.70;;;;;;5029621;28;19917;-53
2023/08/07 11:04:14;;;;;;;;;;;21.00;61.50;;;;;;5033799;28;19919;-53
2023/08/07 11:06:40;;;;;;;;;;;20.90;61.30;;;;;;5029187;28;19913;-54
2023/08/07 11:09:09;;;;;;;;;;;21.00;61.60;;;;;;5029660;28;19984;-53
2023/08/07 11:11:39;;;;;;;;;;;21.00;61.20;;;;;;5031915;28;19917;-53
2023/08/07 11:14:05;;;;;;;;;;;21.00;61.40;;;;;;5015936;28;19959;-53
2023/08/07 11:16:30;;;;;;;;;;;21.00;61.50;;;;;;5033169;28;19956;-53
2023/08/07 11:18:56;;;;;;;;;;;21.00;60.80;;;;;;5034263;28;19949;-53
2023/08/07 11:21:21;;;;;;;;;;;21.00;61.20;;;;;;5030635;28;19913;-54
2023/08/07 11:23:47;;;;;;;;;;;21.00;61.40;;;;;;5033460;28;19913;-54
2023/08/07 11:26:12;;;;;;;;;;;21.00;61.00;;;;;;5033745;28;19987;-54
2023/08/07 11:28:38;;;;;;;;;;;21.00;61.60;;;;;;5029881;28;19927;-54
2023/08/07 11:31:03;;;;;;;;;;;20.90;61.80;;;;;;5031614;28;19972;-53
2023/08/07 11:33:29;;;;;;;;;;;20.90;61.40;;;;;;5032076;28;19956;-53
2023/08/07 11:35:55;;;;;;;;;;;20.90;61.60;;;;;;5031765;28;20324;-53
2023/08/07 11:38:30;;;;;;;;;;;21.00;61.90;;;;;;5039583;28;19975;-54
2023/08/07 11:40:57;;;;;;;;;;;20.90;61.90;;;;;;5030966;28;19913;-54
2023/08/07 11:43:22;;;;;;;;;;;21.00;61.70;;;;;;5032662;28;19963;-53
2023/08/07 11:45:47;;;;;;;;;;;20.90;62.60;;;;;;5033197;28;19917;-53
2023/08/07 11:48:13;;;;;;;;;;;21.00;61.70;;;;;;5032179;28;20019;-53
2023/08/07 11:50:38;;;;;;;;;;;21.00;61.10;;;;;;5030985;28;20412;-53
2023/08/07 11:53:04;;;;;;;;;;;21.00;61.10;;;;;;5029224;28;19913;-53
2023/08/07 11:55:30;;;;;;;;;;;21.00;61.50;;;;;;5029426;28;20004;-54
2023/08/07 11:57:55;;;;;;;;;;;21.00;62.20;;;;;;5030952;28;19917;-54
2023/08/07 12:00:21;;;;;;;;;;;21.00;62.20;;;;;;5028470;28;19917;-53
2023/08/07 12:02:46;;;;;;;;;;;20.90;62.10;;;;;;5009695;28;20055;-53
2023/08/07 12:05:12;;;;;;;;;;;21.00;62.10;;;;;;5025119;28;20067;-53
2023/08/07 12:07:38;;;;;;;;;;;20.90;62.40;;;;;;5032604;28;19917;-53
2023/08/07 12:10:06;;;;;;;;;;;21.00;62.20;;;;;;5029934;28;20408;-54
2023/08/07 12:12:37;;;;;;;;;;;21.00;62.10;;;;;;5032503;28;20409;-53
2023/08/07 12:15:06;;;;;;;;;;;21.00;62.50;;;;;;5031324;28;19953;-53
2023/08/07 12:17:32;;;;;;;;;;;21.00;62.60;;;;;;5032297;28;19917;-53
2023/08/07 12:19:57;;;;;;;;;;;20.90;62.60;;;;;;5030445;28;19917;-53
2023/08/07 12:22:23;;;;;;;;;;;20.90;62.60;;;;;;5029597;28;19992;-54
2023/08/07 12:24:48;;;;;;;;;;;20.90;62.60;;;;;;5028533;28;20393;-54
2023/08/07 12:27:14;;;;;;;;;;;20.90;62.70;;;;;;5030254;28;19957;-53
2023/08/07 12:29:39;;;;;;;;;;;20.90;62.70;;;;;;5029181;28;19917;-53
2023/08/07 12:32:05;;;;;;;;;;;20.90;62.60;;;;;;5030122;28;20004;-54
2023/08/07 12:34:32;;;;;;;;;;;20.90;62.60;;;;;;5032337;28;19964;-54
2023/08/07 12:36:57;;;;;;;;;;;20.90;62.70;;;;;;5027128;28;20426;-54
2023/08/07 12:39:23;;;;;;;;;;;21.00;62.70;;;;;;5027749;28;19917;-54
2023/08/07 12:41:49;;;;;;;;;;;21.00;62.50;;;;;;5029294;28;20285;-54
2023/08/07 12:44:15;;;;;;;;;;;20.90;62.80;;;;;;5030130;28;19919;-54
2023/08/07 12:46:40;;;;;;;;;;;21.00;62.60;;;;;;5026514;28;20182;-53
2023/08/07 12:49:08;;;;;;;;;;;21.00;63.00;;;;;;5030068;28;19929;-53
2023/08/07 12:51:34;;;;;;;;;;;20.90;62.70;;;;;;5032027;28;19956;-54
2023/08/07 12:53:59;;;;;;;;;;;20.90;63.00;;;;;;5028277;28;20336;-55
2023/08/07 12:56:25;;;;;;;;;;;20.90;62.90;;;;;;5031213;28;20177;-53
2023/08/07 12:58:50;;;;;;;;;;;21.00;63.10;;;;;;5030852;28;19932;-53
2023/08/07 13:01:16;;;;;;;;;;;20.90;63.30;;;;;;5029600;28;19920;-53
2023/08/07 13:03:41;;;;;;;;;;;20.90;63.30;;;;;;5029931;28;20019;-53
2023/08/07 13:06:08;;;;;;;;;;;20.90;63.40;;;;;;5031429;28;19917;-54
2023/08/07 13:08:34;;;;;;;;;;;20.90;63.40;;;;;;5031638;28;19909;-53
2023/08/07 13:11:03;;;;;;;;;;;20.90;63.40;;;;;;5031687;28;20393;-54
2023/08/07 13:13:30;;;;;;;;;;;20.90;63.40;;;;;;5020033;28;20442;-53
2023/08/07 13:15:55;;;;;;;;;;;20.90;63.50;;;;;;5027415;28;19975;-53
2023/08/07 13:18:20;;;;;;;;;;;21.00;63.70;;;;;;5030133;28;19953;-53
2023/08/07 13:20:46;;;;;;;;;;;21.00;63.70;;;;;;5030142;28;19920;-53
2023/08/07 13:23:13;;;;;;;;;;;21.00;63.70;;;;;;5029464;28;19913;-54
2023/08/07 13:25:38;;;;;;;;;;;21.00;63.30;;;;;;5029688;28;19963;-53
2023/08/07 13:28:06;;;;;;;;;;;21.00;63.40;;;;;;5030822;28;19914;-53
2023/08/07 13:30:35;;;;;;;;;;;21.00;63.50;;;;;;5026638;28;19924;-53
2023/08/07 13:33:00;;;;;;;;;;;21.00;63.30;;;;;;5027598;28;19913;-54
2023/08/07 13:35:26;;;;;;;;;;;21.00;62.80;;;;;;5029032;28;19967;-53
2023/08/07 13:37:51;;;;;;;;;;;21.00;63.40;;;;;;5028243;28;19921;-54
2023/08/07 13:40:18;;;;;;;;;;;21.00;63.10;;;;;;5029289;28;19921;-55
2023/08/07 13:42:43;;;;;;;;;;;21.00;63.00;;;;;;5029713;28;19917;-55
2023/08/07 13:45:09;;;;;;;;;;;21.00;63.20;;;;;;5030593;28;20399;-54
2023/08/07 13:47:35;;;;;;;;;;;21.00;62.60;;;;;;5029105;28;19917;-54
2023/08/07 13:50:01;;;;;;;;;;;21.00;63.30;;;;;;5029798;28;19921;-53
2023/08/07 13:52:27;;;;;;;;;;;21.00;62.90;;;;;;5030054;28;19913;-54
2023/08/07 13:54:52;;;;;;;;;;;21.00;62.60;;;;;;5031234;28;19920;-53
2023/08/07 13:57:18;;;;;;;;;;;21.00;63.00;;;;;;5030751;28;19974;-54
2023/08/07 13:59:43;;;;;;;;;;;21.00;63.50;;;;;;5036475;28;19921;-54
2023/08/07 14:02:09;;;;;;;;;;;21.00;63.30;;;;;;5031279;28;20293;-53
2023/08/07 14:04:34;;;;;;;;;;;21.00;63.20;;;;;;5031269;28;20050;-54
2023/08/07 14:07:01;;;;;;;;;;;20.90;62.90;;;;;;5034896;28;19915;-53
2023/08/07 14:09:27;;;;;;;;;;;21.00;62.60;;;;;;5034575;28;20399;-54